ENTCENBR

Guest
Details From ENTC - Tromso Langnes
To ENBR - Bergen Lufthavn Flesland
Flight Number -
Tags decoded
Created
Modified
Stats Distance 659 nm / 1,221 km
Max Altitude 0 ft / 0 m
Waypoints 2
Social Downloads 0
Likes 0
Share VATSIM

Download

Looking for another format? Having issues loading an existing format? Contact us
Advertisement - Login to hide

Notes

Requested: ENTC AMIMO GUBAV TUXOT NONVU OSMUM LUNUR ENBR Unmatched points: AMIMO GUBAV TUXOT NONVU OSMUM LUNUR

Route

ENTC ENBR

ID Type Via Altitude Latitude Longitude Leg Dist Tot Dist Heading (true) Name
O ENTC APT - 0 ft / 0 m 69.68287˚ 18.91936˚ - 0 nm - Tromso Langnes
O ENBR APT - 0 ft / 0 m 60.29339˚ 5.21814˚ 659 nm 659 nm 218° / 206° Bergen Lufthavn Flesland

Altitude Profile

Advertisement - Login to hide

Weather


0- 5 10 15 20 25 30 35+ Temperature / ° C

Clouds and Precipitation
Forecast for 2018-06-24 12:00 UTC. Updated an hour ago

Ground ~20,000 ft ~40,000 ft Winds

ENTC

Details ICAO ENTC (TOS)
Name Tromso Langnes
Region Norway
Timezone Europe/Oslo (UTC+2.0)
Stats Elevation 31 ft / 9 m (AMSL)
Location 69.682866° 18.919363°
Runways 1
Magnetic Variation 8.918° E

METAR

ENTC 241050Z 23010KT 9999 BKN028 08/04 Q1010 NOSIG RMK WIND 2600FT 26031KT

Decode

TAF

TAF ENTC 2406/2506 21008KT 9999 -RA FEW008 BKN025 TEMPO 2406/2412 27015KT BKN012 TEMPO 2500/2506 BKN012

Decode

Departure Runways

ID Width Length Bearing (true) Bearing (mag) Surface Threshold Offset Overrun Length
01 141 ft / 43 m 7,740 ft / 2,359 m 12.19° 3.27° Asphalt 0 ft / 0 m 289 ft / 88 m
19 141 ft / 43 m 7,740 ft / 2,359 m 192.21° 183.29° Asphalt 1,227 ft / 374 m 482 ft / 147 m

ENBR

Details ICAO ENBR (BGO)
Name Bergen Lufthavn Flesland
Region Norway
Timezone Europe/Oslo (UTC+2.0)
Stats Elevation 165 ft / 50 m (AMSL)
Location 60.293388° 5.218140°
Runways 1
Magnetic Variation 0.935° E

METAR

ENBR 241050Z 27003KT 9999 -RA FEW006 SCT009 BKN018 12/10 Q1021 TEMPO 3000 RA BR SCT003 BKN007 RMK WIND 1200FT VRB03KT

Decode

TAF

TAF AMD ENBR 241026Z 2410/2506 30005KT 9000 -DZ SCT005 BKN015 TEMPO 2410/2506 2000 RADZ BR BKN004

Decode

Destination Runways

ID Width Length Bearing (true) Bearing (mag) Surface Threshold Offset Overrun Length
17 148 ft / 45 m 9,793 ft / 2,985 m 170.56° 169.63° Asphalt 886 ft / 270 m 0 ft / 0 m
35 148 ft / 45 m 9,793 ft / 2,985 m 350.57° 349.64° Asphalt 886 ft / 270 m 0 ft / 0 m

Approach Navaids

Runway Type Ident Frequency Range Bearing (true) Bearing (mag) Slope Elevation
17 Localiser BR 109.90 MHz 18 nm / 33 km 170.56° 169.63° - 165 ft / 50 m (AMSL)
17 Glidescope BR 109.90 MHz 10 nm / 19 km 170.56° 169.63° 3.10° 165 ft / 50 m (AMSL)
35 Localiser BG 110.50 MHz 18 nm / 33 km 350.55° 349.61° - 165 ft / 50 m (AMSL)
35 Glidescope BG 110.50 MHz 10 nm / 19 km 350.56° 349.63° 3.00° 165 ft / 50 m (AMSL)

Popular Alternatives